Time;durP1;ratioP1;P1;durP2;ratioP2;P2;SDS_P1;SDS_P2;PMS_P1;PMS_P2;Temp;Humidity;BMP_temperature;BMP_pressure;BME280_temperature;BME280_humidity;BME280_pressure;Samples;Min_cycle;Max_cycle;Signal;HPM_P1;HPM_P2
2022/09/07 03:02:29;;;;;;;;;;;25.50;48.10;;;;;;4989208;23;47536;-62
2022/09/07 03:04:55;;;;;;;;;;;25.50;48.10;;;;;;4913010;28;45405;-54
2022/09/07 03:07:50;;;;;;;;;;;25.50;48.10;;;;;;4932534;28;45339;-58
2022/09/07 03:10:15;;;;;;;;;;;25.50;48.10;;;;;;4914303;28;44739;-57
2022/09/07 03:12:43;;;;;;;;;;;25.50;48.10;;;;;;4924095;28;45557;-55
2022/09/07 03:15:13;;;;;;;;;;;25.50;48.10;;;;;;4902320;28;45185;-58
2022/09/07 03:17:39;;;;;;;;;;;25.50;48.10;;;;;;4915652;28;45216;-54
2022/09/07 03:20:04;;;;;;;;;;;25.50;48.00;;;;;;4897572;28;45482;-56
2022/09/07 03:22:32;;;;;;;;;;;25.40;48.10;;;;;;4916364;28;45271;-59
2022/09/07 03:24:57;;;;;;;;;;;25.40;48.50;;;;;;4926661;28;45451;-59
2022/09/07 03:27:23;;;;;;;;;;;25.40;48.80;;;;;;4920702;28;47101;-60
2022/09/07 03:29:48;;;;;;;;;;;25.30;49.10;;;;;;4923054;28;44843;-55
2022/09/07 03:32:14;;;;;;;;;;;25.30;49.30;;;;;;4923200;28;45445;-58
2022/09/07 03:34:39;;;;;;;;;;;25.30;49.30;;;;;;4919934;28;45201;-60
2022/09/07 03:37:05;;;;;;;;;;;25.30;49.30;;;;;;4922100;28;45992;-60
2022/09/07 03:39:30;;;;;;;;;;;25.30;49.40;;;;;;4921121;28;45249;-60
2022/09/07 03:41:56;;;;;;;;;;;25.20;49.30;;;;;;4923789;28;45024;-58
2022/09/07 03:44:21;;;;;;;;;;;25.30;49.30;;;;;;4923949;28;45189;-59
2022/09/07 03:46:47;;;;;;;;;;;25.20;49.40;;;;;;4926424;28;45832;-61
2022/09/07 03:49:13;;;;;;;;;;;25.20;49.60;;;;;;4923658;28;45421;-56
2022/09/07 03:51:39;;;;;;;;;;;25.20;49.70;;;;;;4921572;28;45679;-55
2022/09/07 03:54:04;;;;;;;;;;;25.20;49.60;;;;;;4922587;28;44746;-58
2022/09/07 03:56:30;;;;;;;;;;;25.20;49.50;;;;;;4919544;28;45327;-59
2022/09/07 03:58:55;;;;;;;;;;;25.20;49.40;;;;;;4916224;28;44955;-54
2022/09/07 04:01:22;;;;;;;;;;;25.20;49.30;;;;;;4915577;28;45858;-60
2022/09/07 04:03:48;;;;;;;;;;;25.20;49.30;;;;;;4914953;28;45506;-56
2022/09/07 04:06:14;;;;;;;;;;;25.20;49.30;;;;;;4924156;28;46112;-54
2022/09/07 04:08:39;;;;;;;;;;;25.20;49.30;;;;;;4921444;28;44642;-59
2022/09/07 04:11:05;;;;;;;;;;;25.20;49.40;;;;;;4924693;28;45067;-57
2022/09/07 04:13:31;;;;;;;;;;;25.20;49.40;;;;;;4919059;28;45461;-58
2022/09/07 04:15:57;;;;;;;;;;;25.20;49.40;;;;;;4919210;28;45518;-57
2022/09/07 04:18:22;;;;;;;;;;;25.20;49.40;;;;;;4904449;28;45443;-55
2022/09/07 04:20:51;;;;;;;;;;;25.20;49.40;;;;;;4915305;28;45292;-59
2022/09/07 04:23:17;;;;;;;;;;;25.10;49.40;;;;;;4915710;28;45411;-56
2022/09/07 04:25:49;;;;;;;;;;;25.10;49.50;;;;;;4919168;28;46089;-56
2022/09/07 04:28:14;;;;;;;;;;;25.10;50.10;;;;;;4923308;28;45479;-57
2022/09/07 04:30:40;;;;;;;;;;;25.10;49.50;;;;;;4904177;28;45128;-61
2022/09/07 04:33:05;;;;;;;;;;;25.10;49.50;;;;;;4919935;28;45259;-59
2022/09/07 04:35:34;;;;;;;;;;;25.10;49.40;;;;;;4904943;28;45932;-58
2022/09/07 04:38:00;;;;;;;;;;;25.10;49.40;;;;;;4917041;28;45383;-59
2022/09/07 04:40:31;;;;;;;;;;;25.20;49.40;;;;;;4915618;28;45563;-61
2022/09/07 04:42:59;;;;;;;;;;;25.20;49.40;;;;;;4918626;28;45307;-60
2022/09/07 04:45:25;;;;;;;;;;;25.10;49.50;;;;;;4916748;28;45210;-56
2022/09/07 04:47:50;;;;;;;;;;;25.00;49.80;;;;;;4914932;28;44781;-60
2022/09/07 04:50:16;;;;;;;;;;;25.00;50.00;;;;;;4922917;28;45308;-60
2022/09/07 04:52:44;;;;;;;;;;;24.90;50.10;;;;;;4916309;28;45762;-58
2022/09/07 04:55:10;;;;;;;;;;;24.90;50.40;;;;;;4918430;28;46834;-56
2022/09/07 04:57:36;;;;;;;;;;;24.90;50.50;;;;;;4920570;28;44977;-57
2022/09/07 05:00:02;;;;;;;;;;;24.90;50.30;;;;;;4918472;28;45137;-59
2022/09/07 05:02:28;;;;;;;;;;;24.90;50.10;;;;;;4917809;28;45997;-57
2022/09/07 05:04:54;;;;;;;;;;;25.00;50.10;;;;;;4920258;28;46152;-59
2022/09/07 05:07:19;;;;;;;;;;;25.00;50.10;;;;;;4918822;28;45043;-61
2022/09/07 05:09:45;;;;;;;;;;;25.00;50.00;;;;;;4899141;28;45345;-57
2022/09/07 05:12:11;;;;;;;;;;;25.00;50.00;;;;;;4916340;28;45583;-56
2022/09/07 05:14:36;;;;;;;;;;;25.10;50.00;;;;;;4913174;28;46125;-54
2022/09/07 05:17:03;;;;;;;;;;;25.10;49.90;;;;;;4922844;28;44931;-59
2022/09/07 05:19:29;;;;;;;;;;;25.10;49.90;;;;;;4913324;28;45959;-58
2022/09/07 05:21:55;;;;;;;;;;;25.10;49.90;;;;;;4901166;28;45432;-58
2022/09/07 05:24:21;;;;;;;;;;;25.10;49.90;;;;;;4920430;28;46392;-55
2022/09/07 05:26:46;;;;;;;;;;;25.10;50.00;;;;;;4916873;28;45238;-56
2022/09/07 05:29:12;;;;;;;;;;;25.20;50.10;;;;;;4923502;28;45327;-59
2022/09/07 05:31:37;;;;;;;;;;;25.20;50.10;;;;;;4918025;28;45196;-54
2022/09/07 05:34:03;;;;;;;;;;;25.20;50.20;;;;;;4918544;28;46047;-59
2022/09/07 05:36:28;;;;;;;;;;;25.20;50.20;;;;;;4913113;28;45006;-58
2022/09/07 05:38:54;;;;;;;;;;;25.20;50.20;;;;;;4916783;28;45476;-58
2022/09/07 05:41:20;;;;;;;;;;;25.20;50.20;;;;;;4920960;28;45303;-56
2022/09/07 05:43:46;;;;;;;;;;;25.20;50.40;;;;;;4911549;28;46738;-61
2022/09/07 05:46:12;;;;;;;;;;;25.20;50.60;;;;;;4914498;28;45027;-57
2022/09/07 05:48:37;;;;;;;;;;;25.20;50.80;;;;;;4912601;28;45167;-55
2022/09/07 05:51:03;;;;;;;;;;;25.10;50.80;;;;;;4913066;28;45469;-59
2022/09/07 05:53:28;;;;;;;;;;;25.10;50.80;;;;;;4921292;28;45388;-55
2022/09/07 05:55:58;;;;;;;;;;;25.10;50.90;;;;;;4914912;28;45593;-60
2022/09/07 05:58:24;;;;;;;;;;;25.10;51.00;;;;;;4914724;28;45286;-56
2022/09/07 06:00:49;;;;;;;;;;;25.10;51.00;;;;;;4913217;28;44920;-59
2022/09/07 06:03:15;;;;;;;;;;;25.10;51.00;;;;;;4912630;28;46354;-58
2022/09/07 06:05:40;;;;;;;;;;;25.10;51.10;;;;;;4919622;28;45402;-59
2022/09/07 06:08:06;;;;;;;;;;;25.10;51.10;;;;;;4911061;28;45392;-56
2022/09/07 06:10:34;;;;;;;;;;;25.20;51.40;;;;;;4924525;28;45850;-55
2022/09/07 06:13:00;;;;;;;;;;;25.20;51.40;;;;;;4925583;28;45258;-56
2022/09/07 06:15:25;;;;;;;;;;;25.10;51.40;;;;;;4919255;28;45428;-57
2022/09/07 06:17:52;;;;;;;;;;;25.10;51.60;;;;;;4919767;28;45519;-62
2022/09/07 06:20:17;;;;;;;;;;;25.20;51.80;;;;;;4897979;28;45616;-57
2022/09/07 06:22:43;;;;;;;;;;;25.20;52.10;;;;;;4916525;28;46948;-55
2022/09/07 06:25:08;;;;;;;;;;;25.20;52.10;;;;;;4914458;28;44929;-58
2022/09/07 06:27:34;;;;;;;;;;;25.10;52.20;;;;;;4910940;28;45553;-56
2022/09/07 06:29:59;;;;;;;;;;;25.20;52.30;;;;;;4918009;28;45422;-59
2022/09/07 06:32:25;;;;;;;;;;;25.20;52.40;;;;;;4918378;28;45117;-62
2022/09/07 06:34:51;;;;;;;;;;;25.20;52.40;;;;;;4920878;28;45006;-56
2022/09/07 06:37:16;;;;;;;;;;;25.20;52.40;;;;;;4919136;28;45461;-57
2022/09/07 06:39:42;;;;;;;;;;;25.20;52.40;;;;;;4918089;28;46119;-59
2022/09/07 06:42:07;;;;;;;;;;;25.20;52.60;;;;;;4923797;28;45698;-57
2022/09/07 06:44:33;;;;;;;;;;;25.20;52.70;;;;;;4912918;28;45349;-59
2022/09/07 06:46:59;;;;;;;;;;;25.20;52.90;;;;;;4918902;28;44775;-59
2022/09/07 06:49:24;;;;;;;;;;;25.20;53.00;;;;;;4915693;28;45104;-61
2022/09/07 06:51:50;;;;;;;;;;;25.20;53.10;;;;;;4918165;28;46323;-60
2022/09/07 06:54:15;;;;;;;;;;;25.20;53.20;;;;;;4918159;28;45314;-61
2022/09/07 06:56:41;;;;;;;;;;;25.20;53.30;;;;;;4922348;28;45426;-59
2022/09/07 06:59:06;;;;;;;;;;;25.20;53.50;;;;;;4921362;28;45306;-57
2022/09/07 07:01:32;;;;;;;;;;;25.20;53.60;;;;;;4921160;28;46964;-59
2022/09/07 07:03:58;;;;;;;;;;;25.20;53.70;;;;;;4925908;28;45330;-58
2022/09/07 07:06:27;;;;;;;;;;;25.20;53.80;;;;;;4908052;28;45530;-59
2022/09/07 07:08:53;;;;;;;;;;;25.20;53.90;;;;;;4898959;28;45371;-57
2022/09/07 07:11:19;;;;;;;;;;;25.20;54.00;;;;;;4919450;28;46046;-58
2022/09/07 07:13:44;;;;;;;;;;;25.20;54.00;;;;;;4922414;28;45374;-58
2022/09/07 07:16:11;;;;;;;;;;;25.20;54.00;;;;;;4927492;28;44940;-58
2022/09/07 07:18:36;;;;;;;;;;;25.20;54.10;;;;;;4925586;28;45246;-59
2022/09/07 07:21:03;;;;;;;;;;;25.20;54.60;;;;;;4920944;28;45483;-59
2022/09/07 07:23:28;;;;;;;;;;;25.20;54.00;;;;;;4927441;28;44783;-59
2022/09/07 07:25:54;;;;;;;;;;;25.30;54.10;;;;;;4923037;28;45596;-57
2022/09/07 07:28:22;;;;;;;;;;;25.20;54.70;;;;;;4918906;28;45603;-59
2022/09/07 07:30:53;;;;;;;;;;;25.30;54.20;;;;;;4917103;28;45967;-61
2022/09/07 07:33:18;;;;;;;;;;;25.30;54.20;;;;;;4918864;28;44631;-56
2022/09/07 07:35:44;;;;;;;;;;;25.30;54.30;;;;;;4918987;28;45680;-57
2022/09/07 07:38:09;;;;;;;;;;;25.40;54.40;;;;;;4922822;28;45555;-62
2022/09/07 07:40:35;;;;;;;;;;;25.40;54.20;;;;;;4918960;28;46047;-58
2022/09/07 07:43:01;;;;;;;;;;;25.40;54.20;;;;;;4925677;28;44846;-57
2022/09/07 07:45:26;;;;;;;;;;;25.50;53.90;;;;;;4913436;28;45222;-60
2022/09/07 07:47:52;;;;;;;;;;;25.50;54.00;;;;;;4921243;28;45193;-59
2022/09/07 07:50:17;;;;;;;;;;;25.50;53.60;;;;;;4922151;28;47130;-59
2022/09/07 07:52:43;;;;;;;;;;;25.60;53.50;;;;;;4918129;28;45478;-60
2022/09/07 07:55:08;;;;;;;;;;;25.60;53.40;;;;;;4910896;28;45193;-58
2022/09/07 07:57:34;;;;;;;;;;;25.70;53.40;;;;;;4923354;28;45845;-60
2022/09/07 08:00:00;;;;;;;;;;;25.70;53.30;;;;;;4911395;28;45971;-61
2022/09/07 08:02:25;;;;;;;;;;;25.70;53.20;;;;;;4922085;28;45294;-62
2022/09/07 08:04:51;;;;;;;;;;;25.80;53.00;;;;;;4915111;28;44922;-60
2022/09/07 08:07:18;;;;;;;;;;;25.80;53.10;;;;;;4915258;28;45403;-60
2022/09/07 08:09:44;;;;;;;;;;;25.80;53.10;;;;;;4918779;28;46291;-58
2022/09/07 08:12:11;;;;;;;;;;;25.80;53.00;;;;;;4922499;28;45513;-57
2022/09/07 08:14:39;;;;;;;;;;;25.90;52.90;;;;;;4921848;28;45262;-60
2022/09/07 08:17:05;;;;;;;;;;;25.90;52.80;;;;;;4919314;28;45396;-56
2022/09/07 08:19:30;;;;;;;;;;;26.00;52.90;;;;;;4922554;28;46133;-58
2022/09/07 08:21:56;;;;;;;;;;;26.00;52.70;;;;;;4919528;28;45516;-60
2022/09/07 08:24:21;;;;;;;;;;;26.00;52.50;;;;;;4921464;28;45435;-61
2022/09/07 08:26:47;;;;;;;;;;;26.00;52.60;;;;;;4923158;28;45186;-57
2022/09/07 08:29:12;;;;;;;;;;;26.00;52.50;;;;;;4928441;28;44988;-59
2022/09/07 08:31:38;;;;;;;;;;;26.10;52.50;;;;;;4919616;28;44694;-59
2022/09/07 08:34:03;;;;;;;;;;;26.10;52.30;;;;;;4920261;28;45323;-57
2022/09/07 08:36:30;;;;;;;;;;;26.20;52.20;;;;;;4922654;28;45070;-62
2022/09/07 08:38:56;;;;;;;;;;;26.20;52.20;;;;;;4919347;28;45987;-58
2022/09/07 08:41:38;;;;;;;;;;;26.30;52.10;;;;;;4921253;28;45448;-55
2022/09/07 08:44:05;;;;;;;;;;;26.30;51.90;;;;;;4897589;28;44863;-53
2022/09/07 08:46:49;;;;;;;;;;;26.30;51.70;;;;;;4910233;28;45122;-62
2022/09/07 08:49:16;;;;;;;;;;;26.40;51.40;;;;;;4915601;28;45979;-58
2022/09/07 08:51:49;;;;;;;;;;;26.40;51.50;;;;;;4905952;28;45469;-60
2022/09/07 08:54:15;;;;;;;;;;;26.40;51.20;;;;;;4918713;28;45230;-59
2022/09/07 08:56:41;;;;;;;;;;;26.50;50.80;;;;;;4920652;28;45376;-59
2022/09/07 08:59:12;;;;;;;;;;;26.50;50.90;;;;;;4904147;28;46251;-56
2022/09/07 09:01:39;;;;;;;;;;;26.50;50.90;;;;;;4912141;28;45673;-59
2022/09/07 09:04:24;;;;;;;;;;;26.60;50.90;;;;;;4921864;28;45312;-55
2022/09/07 09:06:52;;;;;;;;;;;26.60;50.80;;;;;;4939001;28;45360;-57
2022/09/07 09:09:31;;;;;;;;;;;26.60;50.80;;;;;;4935739;28;45300;-60
2022/09/07 09:11:59;;;;;;;;;;;26.70;50.70;;;;;;4925055;28;45279;-57
2022/09/07 09:14:40;;;;;;;;;;;26.70;50.60;;;;;;4938963;28;45469;-58
2022/09/07 09:17:29;;;;;;;;;;;26.80;50.60;;;;;;4935666;28;45359;-58
2022/09/07 09:20:01;;;;;;;;;;;26.80;50.40;;;;;;4924402;28;46934;-59
2022/09/07 09:22:27;;;;;;;;;;;26.80;50.10;;;;;;4937940;28;45525;-55
2022/09/07 09:24:55;;;;;;;;;;;26.90;50.80;;;;;;4922042;28;45021;-58
2022/09/07 09:27:21;;;;;;;;;;;26.90;50.20;;;;;;4939453;28;45511;-56
2022/09/07 09:29:46;;;;;;;;;;;26.90;50.00;;;;;;4926799;28;45928;-55
2022/09/07 09:32:32;;;;;;;;;;;27.00;49.70;;;;;;4937192;28;45266;-55
2022/09/07 09:35:01;;;;;;;;;;;27.00;49.60;;;;;;4933202;28;44709;-59
2022/09/07 09:37:32;;;;;;;;;;;27.00;49.50;;;;;;4918014;28;45066;-56
2022/09/07 09:39:57;;;;;;;;;;;27.00;49.40;;;;;;4934585;28;46305;-56
2022/09/07 09:42:23;;;;;;;;;;;27.00;49.30;;;;;;4918851;28;45234;-55
2022/09/07 09:44:48;;;;;;;;;;;27.10;49.30;;;;;;4931815;28;44844;-58
2022/09/07 09:47:26;;;;;;;;;;;27.10;49.30;;;;;;4937779;28;45070;-57
2022/09/07 09:49:52;;;;;;;;;;;27.10;49.10;;;;;;4934478;28;46183;-55
2022/09/07 09:52:18;;;;;;;;;;;27.10;49.10;;;;;;4936765;28;44757;-55
2022/09/07 09:54:43;;;;;;;;;;;27.10;49.00;;;;;;4923450;28;44914;-55
2022/09/07 09:57:15;;;;;;;;;;;27.20;48.90;;;;;;4938384;28;45239;-54
2022/09/07 09:59:41;;;;;;;;;;;27.20;48.90;;;;;;4932788;28;46145;-56
2022/09/07 10:02:15;;;;;;;;;;;27.20;48.80;;;;;;4936124;28;45251;-61
2022/09/07 10:04:42;;;;;;;;;;;27.20;48.70;;;;;;4935341;28;45316;-62
2022/09/07 10:07:20;;;;;;;;;;;27.20;48.50;;;;;;4937853;28;44839;-59
2022/09/07 10:09:50;;;;;;;;;;;27.20;48.50;;;;;;4934538;28;45489;-53
2022/09/07 10:12:28;;;;;;;;;;;27.30;48.30;;;;;;4930714;28;45238;-60
2022/09/07 10:14:55;;;;;;;;;;;27.30;48.20;;;;;;4941067;28;44775;-57
2022/09/07 10:17:53;;;;;;;;;;;27.40;48.70;;;;;;4932055;28;45581;-61
2022/09/07 10:20:28;;;;;;;;;;;27.40;48.00;;;;;;4884289;28;45989;-56
2022/09/07 10:22:53;;;;;;;;;;;27.40;47.90;;;;;;4941148;28;45266;-53
2022/09/07 10:25:26;;;;;;;;;;;27.50;47.90;;;;;;4942883;28;44814;-56
2022/09/07 10:28:04;;;;;;;;;;;27.50;47.80;;;;;;4941880;28;44898;-57
2022/09/07 10:30:36;;;;;;;;;;;27.50;47.60;;;;;;4939413;28;46158;-60
2022/09/07 10:33:03;;;;;;;;;;;27.60;47.50;;;;;;4922939;28;45116;-58
2022/09/07 10:35:33;;;;;;;;;;;27.60;47.40;;;;;;4931180;28;45249;-57
2022/09/07 10:38:05;;;;;;;;;;;27.60;47.20;;;;;;4924232;28;45158;-58
2022/09/07 10:40:51;;;;;;;;;;;27.60;47.20;;;;;;4924129;28;45986;-57
2022/09/07 10:43:25;;;;;;;;;;;27.60;47.00;;;;;;4922260;28;45372;-57
2022/09/07 10:45:55;;;;;;;;;;;27.70;47.10;;;;;;4938279;28;44802;-57
2022/09/07 10:48:40;;;;;;;;;;;27.70;47.00;;;;;;4939740;28;45624;-56
2022/09/07 10:51:08;;;;;;;;;;;27.70;47.00;;;;;;4936402;28;45968;-60
2022/09/07 10:53:36;;;;;;;;;;;27.70;47.10;;;;;;4937446;28;44998;-53
2022/09/07 10:56:06;;;;;;;;;;;27.70;47.00;;;;;;4941217;28;45368;-60
2022/09/07 10:58:31;;;;;;;;;;;27.70;46.90;;;;;;4908388;28;44697;-58
2022/09/07 11:01:12;;;;;;;;;;;27.70;47.00;;;;;;4936437;28;45359;-55
2022/09/07 11:03:46;;;;;;;;;;;27.70;46.90;;;;;;4918938;28;45191;-57
2022/09/07 11:06:16;;;;;;;;;;;27.80;47.00;;;;;;4936377;28;45515;-57
2022/09/07 11:08:45;;;;;;;;;;;27.70;46.90;;;;;;4936322;28;44757;-59
2022/09/07 11:11:17;;;;;;;;;;;27.80;47.00;;;;;;4923353;28;45144;-64
2022/09/07 11:13:43;;;;;;;;;;;27.80;47.00;;;;;;4924376;28;45262;-54
2022/09/07 11:16:16;;;;;;;;;;;27.80;47.00;;;;;;4936237;28;45284;-56
2022/09/07 11:18:47;;;;;;;;;;;27.80;46.90;;;;;;4931007;28;45291;-56
2022/09/07 11:21:13;;;;;;;;;;;27.80;46.80;;;;;;4928517;28;46403;-56
2022/09/07 11:23:45;;;;;;;;;;;27.90;46.90;;;;;;4925503;28;45177;-53
2022/09/07 11:26:11;;;;;;;;;;;27.90;46.80;;;;;;4941314;28;45275;-54
2022/09/07 11:28:41;;;;;;;;;;;27.90;46.80;;;;;;4937382;28;44888;-56
2022/09/07 11:31:12;;;;;;;;;;;27.90;46.70;;;;;;4916548;28;46044;-58
2022/09/07 11:33:39;;;;;;;;;;;28.00;46.80;;;;;;4921241;28;45267;-55
2022/09/07 11:36:06;;;;;;;;;;;28.00;46.70;;;;;;4926522;28;45186;-56
2022/09/07 11:38:52;;;;;;;;;;;28.00;46.70;;;;;;4917997;28;45712;-62
2022/09/07 11:41:22;;;;;;;;;;;28.00;46.60;;;;;;4918958;28;45938;-55
2022/09/07 11:44:08;;;;;;;;;;;28.00;46.70;;;;;;4922691;28;45332;-54
2022/09/07 11:46:40;;;;;;;;;;;28.10;46.60;;;;;;4938651;28;45230;-58
2022/09/07 11:49:09;;;;;;;;;;;28.10;46.70;;;;;;4940016;28;45241;-58
2022/09/07 11:51:37;;;;;;;;;;;28.10;46.50;;;;;;4925156;28;46138;-59
2022/09/07 11:54:07;;;;;;;;;;;28.10;46.60;;;;;;4940023;28;45094;-56
2022/09/07 11:56:34;;;;;;;;;;;28.20;46.50;;;;;;4939343;28;45288;-57
2022/09/07 11:59:03;;;;;;;;;;;28.20;46.70;;;;;;4916436;28;45701;-57
2022/09/07 12:01:47;;;;;;;;;;;28.20;46.50;;;;;;4940498;28;46070;-60
2022/09/07 12:04:22;;;;;;;;;;;28.20;46.30;;;;;;4935320;28;45198;-57
2022/09/07 12:06:47;;;;;;;;;;;28.30;46.40;;;;;;4939371;28;45408;-57
2022/09/07 12:09:16;;;;;;;;;;;28.30;46.30;;;;;;4939714;28;45695;-53
2022/09/07 12:12:00;;;;;;;;;;;28.30;46.20;;;;;;4935329;28;45868;-59
2022/09/07 12:14:38;;;;;;;;;;;28.40;46.20;;;;;;4936857;28;45586;-59
2022/09/07 12:17:22;;;;;;;;;;;28.40;46.30;;;;;;4938097;28;45558;-58
2022/09/07 12:20:06;;;;;;;;;;;28.40;46.20;;;;;;4936480;28;45315;-57
2022/09/07 12:22:32;;;;;;;;;;;28.40;46.10;;;;;;4938698;28;46051;-65
2022/09/07 12:24:57;;;;;;;;;;;28.40;46.00;;;;;;4926401;28;46782;-54
2022/09/07 12:27:24;;;;;;;;;;;28.50;46.00;;;;;;4924365;28;45617;-59
2022/09/07 12:29:51;;;;;;;;;;;28.40;45.70;;;;;;4940550;28;46746;-60
2022/09/07 12:32:35;;;;;;;;;;;28.40;45.80;;;;;;4916304;28;46175;-60
2022/09/07 12:35:01;;;;;;;;;;;28.50;45.90;;;;;;4934188;28;45643;-56
2022/09/07 12:37:29;;;;;;;;;;;28.50;46.00;;;;;;4926576;28;45524;-56
2022/09/07 12:40:14;;;;;;;;;;;28.50;45.70;;;;;;4934745;28;45297;-58
2022/09/07 12:42:39;;;;;;;;;;;28.60;45.70;;;;;;4933725;28;46030;-60
2022/09/07 12:45:23;;;;;;;;;;;28.60;45.70;;;;;;4921150;28;45236;-58
2022/09/07 12:47:55;;;;;;;;;;;28.60;45.60;;;;;;4939479;28;45149;-59
2022/09/07 12:50:28;;;;;;;;;;;28.60;45.50;;;;;;4923018;28;45253;-59
2022/09/07 12:53:14;;;;;;;;;;;28.60;45.50;;;;;;4936605;28;45891;-57
2022/09/07 12:55:48;;;;;;;;;;;28.60;45.30;;;;;;4900518;28;45229;-60
2022/09/07 12:58:22;;;;;;;;;;;28.70;45.40;;;;;;4939226;28;45259;-57
2022/09/07 13:00:52;;;;;;;;;;;28.70;45.50;;;;;;4935417;28;44984;-59
2022/09/07 13:03:17;;;;;;;;;;;28.70;45.30;;;;;;4923148;28;45884;-53
2022/09/07 13:05:51;;;;;;;;;;;28.70;45.20;;;;;;4936933;28;45125;-60
2022/09/07 13:08:29;;;;;;;;;;;28.70;45.30;;;;;;4934355;28;45302;-56
2022/09/07 13:10:54;;;;;;;;;;;28.70;45.40;;;;;;4937911;28;45429;-60
2022/09/07 13:13:24;;;;;;;;;;;28.70;45.20;;;;;;4934812;28;46120;-54
2022/09/07 13:15:51;;;;;;;;;;;28.70;45.30;;;;;;4921866;28;45181;-58
2022/09/07 13:18:28;;;;;;;;;;;28.80;45.20;;;;;;4938236;28;45298;-55
2022/09/07 13:21:06;;;;;;;;;;;28.80;45.30;;;;;;4936142;28;45288;-56
2022/09/07 13:23:35;;;;;;;;;;;28.80;45.10;;;;;;4934554;28;46245;-56
2022/09/07 13:26:01;;;;;;;;;;;28.80;45.10;;;;;;4924596;28;44916;-53
2022/09/07 13:28:46;;;;;;;;;;;28.80;45.30;;;;;;4917348;28;45300;-54
2022/09/07 13:31:11;;;;;;;;;;;28.80;45.20;;;;;;4938617;28;45087;-60
2022/09/07 13:33:40;;;;;;;;;;;28.80;45.10;;;;;;4937613;28;45932;-57
2022/09/07 13:36:12;;;;;;;;;;;28.80;45.20;;;;;;4933211;28;45190;-57
2022/09/07 13:38:38;;;;;;;;;;;28.80;45.00;;;;;;4914369;28;45423;-60
2022/09/07 13:41:05;;;;;;;;;;;28.90;44.90;;;;;;4922291;28;45779;-55
2022/09/07 13:43:30;;;;;;;;;;;28.90;44.90;;;;;;4925246;28;45379;-58
2022/09/07 13:46:00;;;;;;;;;;;28.90;44.90;;;;;;4936951;28;45308;-56
2022/09/07 13:48:45;;;;;;;;;;;28.90;45.00;;;;;;4937352;28;45391;-55
2022/09/07 13:51:14;;;;;;;;;;;28.90;44.80;;;;;;4923294;28;45413;-58
2022/09/07 13:53:48;;;;;;;;;;;28.90;44.70;;;;;;4934600;28;46175;-56
2022/09/07 13:56:32;;;;;;;;;;;29.00;44.80;;;;;;4934529;28;45218;-63
2022/09/07 13:58:58;;;;;;;;;;;29.00;44.40;;;;;;4934773;28;45466;-55
2022/09/07 14:01:24;;;;;;;;;;;29.00;44.20;;;;;;4922599;28;45697;-59
2022/09/07 14:03:51;;;;;;;;;;;29.00;44.10;;;;;;4935385;28;46815;-58
2022/09/07 14:06:20;;;;;;;;;;;29.00;44.00;;;;;;4922937;28;45437;-62
2022/09/07 14:08:49;;;;;;;;;;;29.00;43.90;;;;;;4935359;28;44797;-62
2022/09/07 14:11:16;;;;;;;;;;;29.00;43.70;;;;;;4936939;28;46190;-57
2022/09/07 14:13:41;;;;;;;;;;;29.10;43.70;;;;;;4932291;28;45462;-58
2022/09/07 14:16:07;;;;;;;;;;;29.10;43.60;;;;;;4939684;28;45216;-59
2022/09/07 14:18:32;;;;;;;;;;;29.10;43.50;;;;;;4922669;28;45480;-57
2022/09/07 14:20:58;;;;;;;;;;;29.10;43.40;;;;;;4921376;28;45188;-56
2022/09/07 14:23:26;;;;;;;;;;;29.10;43.30;;;;;;4937360;28;46076;-58
2022/09/07 14:26:25;;;;;;;;;;;29.10;43.20;;;;;;4924053;28;44795;-55
2022/09/07 14:28:53;;;;;;;;;;;29.10;43.30;;;;;;4916677;28;44887;-57
2022/09/07 14:31:19;;;;;;;;;;;29.10;43.30;;;;;;4932132;28;45495;-60
2022/09/07 14:33:52;;;;;;;;;;;29.10;42.90;;;;;;4924529;28;46213;-56
2022/09/07 14:36:17;;;;;;;;;;;29.10;42.80;;;;;;4924280;28;44735;-53
2022/09/07 14:38:43;;;;;;;;;;;29.10;42.60;;;;;;4933989;28;45232;-56
2022/09/07 14:41:17;;;;;;;;;;;29.10;42.50;;;;;;4923914;28;45410;-55
2022/09/07 14:43:56;;;;;;;;;;;29.10;42.50;;;;;;4919484;28;45656;-55
2022/09/07 14:46:22;;;;;;;;;;;29.20;42.10;;;;;;4935676;28;45210;-54
2022/09/07 14:48:55;;;;;;;;;;;29.20;42.00;;;;;;4930336;28;45320;-55
2022/09/07 14:51:31;;;;;;;;;;;29.20;42.30;;;;;;4932964;28;45506;-56
2022/09/07 14:53:58;;;;;;;;;;;29.30;41.90;;;;;;4918029;28;46520;-57
2022/09/07 14:56:27;;;;;;;;;;;29.30;41.80;;;;;;4931392;28;45099;-59
2022/09/07 14:58:52;;;;;;;;;;;29.30;41.80;;;;;;4922392;28;45339;-55
2022/09/07 15:01:19;;;;;;;;;;;29.30;41.50;;;;;;4935100;28;45594;-55
2022/09/07 15:03:45;;;;;;;;;;;29.30;41.40;;;;;;4934996;28;46813;-58
2022/09/07 15:06:10;;;;;;;;;;;29.30;41.90;;;;;;4933960;28;45055;-54
2022/09/07 15:08:38;;;;;;;;;;;29.30;41.30;;;;;;4935967;28;45199;-56
2022/09/07 15:11:05;;;;;;;;;;;29.30;40.90;;;;;;4937521;28;45280;-58
2022/09/07 15:13:33;;;;;;;;;;;29.30;40.60;;;;;;4937341;28;46051;-59
2022/09/07 15:16:00;;;;;;;;;;;29.30;40.30;;;;;;4922926;28;45240;-54
2022/09/07 15:18:44;;;;;;;;;;;29.40;40.30;;;;;;4935567;28;45568;-59
2022/09/07 15:21:09;;;;;;;;;;;29.30;40.30;;;;;;4925851;28;45636;-60
2022/09/07 15:23:35;;;;;;;;;;;29.30;40.40;;;;;;4930518;28;47288;-57
2022/09/07 15:26:00;;;;;;;;;;;29.40;40.40;;;;;;4918270;28;45570;-58
2022/09/07 15:28:27;;;;;;;;;;;29.30;40.40;;;;;;4933641;28;45310;-59
2022/09/07 15:30:53;;;;;;;;;;;29.30;40.40;;;;;;4933669;28;45289;-60
2022/09/07 15:33:18;;;;;;;;;;;29.30;40.20;;;;;;4932370;28;45236;-58
2022/09/07 15:35:46;;;;;;;;;;;29.30;40.10;;;;;;4934046;28;44870;-62
2022/09/07 15:38:11;;;;;;;;;;;29.30;39.70;;;;;;4917111;28;45306;-60
2022/09/07 15:40:39;;;;;;;;;;;29.40;39.80;;;;;;4914973;28;44918;-62
2022/09/07 15:43:04;;;;;;;;;;;29.40;39.20;;;;;;4918940;28;47269;-61
2022/09/07 15:45:30;;;;;;;;;;;29.40;39.50;;;;;;4935657;28;45071;-58
2022/09/07 15:47:55;;;;;;;;;;;29.40;38.60;;;;;;4935512;28;44703;-59
2022/09/07 15:50:21;;;;;;;;;;;29.30;38.40;;;;;;4933298;28;45589;-59
2022/09/07 15:52:46;;;;;;;;;;;29.40;38.50;;;;;;4933982;28;46883;-60
2022/09/07 15:55:12;;;;;;;;;;;29.40;38.40;;;;;;4933994;28;45730;-64
2022/09/07 15:57:38;;;;;;;;;;;29.40;38.20;;;;;;4933568;28;45266;-61
2022/09/07 16:00:04;;;;;;;;;;;29.40;38.30;;;;;;4932876;28;45506;-59
2022/09/07 16:02:30;;;;;;;;;;;29.40;38.40;;;;;;4927307;28;45854;-59
2022/09/07 16:04:55;;;;;;;;;;;29.40;38.40;;;;;;4933732;28;45442;-63
2022/09/07 16:07:21;;;;;;;;;;;29.40;38.30;;;;;;4934291;28;45248;-59
2022/09/07 16:09:47;;;;;;;;;;;29.40;38.50;;;;;;4918871;28;45737;-62
2022/09/07 16:12:12;;;;;;;;;;;29.30;38.30;;;;;;4925558;28;45369;-61
2022/09/07 16:14:38;;;;;;;;;;;29.40;38.40;;;;;;4930133;28;45334;-62
2022/09/07 16:17:03;;;;;;;;;;;29.30;38.10;;;;;;4926490;28;45309;-58
2022/09/07 16:19:29;;;;;;;;;;;29.40;38.20;;;;;;4928213;28;46799;-61
2022/09/07 16:21:55;;;;;;;;;;;29.30;37.90;;;;;;4906378;28;46640;-62
2022/09/07 16:24:21;;;;;;;;;;;29.30;37.50;;;;;;4899608;28;45519;-59
2022/09/07 16:26:47;;;;;;;;;;;29.30;37.60;;;;;;4917923;28;45773;-59
2022/09/07 16:29:14;;;;;;;;;;;29.30;37.60;;;;;;4932000;28;45378;-59
2022/09/07 16:31:39;;;;;;;;;;;29.30;37.50;;;;;;4932707;28;45459;-60
2022/09/07 16:34:05;;;;;;;;;;;29.30;37.90;;;;;;4917675;28;45270;-60
2022/09/07 16:36:31;;;;;;;;;;;29.30;37.70;;;;;;4935614;28;44778;-62
2022/09/07 16:38:57;;;;;;;;;;;29.30;37.90;;;;;;4914912;28;45210;-56
2022/09/07 16:41:27;;;;;;;;;;;29.30;37.70;;;;;;4932828;28;45273;-60
2022/09/07 16:43:53;;;;;;;;;;;29.30;37.90;;;;;;4937156;28;45585;-57
2022/09/07 16:46:20;;;;;;;;;;;29.30;37.90;;;;;;4937733;28;45338;-60
2022/09/07 16:48:46;;;;;;;;;;;29.20;37.60;;;;;;4934240;28;44935;-61
2022/09/07 16:51:12;;;;;;;;;;;29.30;37.50;;;;;;4932484;28;45295;-64
2022/09/07 16:53:38;;;;;;;;;;;29.20;37.80;;;;;;4918364;28;45895;-59
2022/09/07 16:56:04;;;;;;;;;;;29.20;38.00;;;;;;4937222;28;45429;-58
2022/09/07 16:58:30;;;;;;;;;;;29.20;37.90;;;;;;4933462;28;44813;-58
2022/09/07 17:00:56;;;;;;;;;;;29.10;37.80;;;;;;4929894;28;45320;-61
2022/09/07 17:03:22;;;;;;;;;;;29.10;37.90;;;;;;4932877;28;44788;-60
2022/09/07 17:05:47;;;;;;;;;;;29.10;37.90;;;;;;4916575;28;45357;-60
2022/09/07 17:08:13;;;;;;;;;;;29.10;38.00;;;;;;4921905;28;44788;-59
2022/09/07 17:10:38;;;;;;;;;;;29.10;38.10;;;;;;4920297;28;45018;-59
2022/09/07 17:13:04;;;;;;;;;;;29.10;38.20;;;;;;4915795;28;45700;-56
2022/09/07 17:15:33;;;;;;;;;;;29.10;38.00;;;;;;4933288;28;45506;-61
2022/09/07 17:17:59;;;;;;;;;;;29.10;38.30;;;;;;4935125;28;45237;-59
2022/09/07 17:20:24;;;;;;;;;;;29.00;37.70;;;;;;4934388;28;46040;-55
2022/09/07 17:22:50;;;;;;;;;;;29.00;38.30;;;;;;4936360;28;45268;-59
2022/09/07 17:25:16;;;;;;;;;;;29.00;37.90;;;;;;4934496;28;45650;-59